createdAt,value
2022-10-06T00:01:12.343Z,0.90
2022-10-06T00:03:40.127Z,1.00
2022-10-06T00:06:08.615Z,0.83
2022-10-06T00:08:36.964Z,0.80
2022-10-06T00:11:04.662Z,0.90
2022-10-06T00:13:32.539Z,1.00
2022-10-06T00:16:00.290Z,1.10
2022-10-06T00:18:28.500Z,1.00
2022-10-06T00:20:57.030Z,1.20
2022-10-06T00:23:24.570Z,1.10
2022-10-06T00:25:51.790Z,1.43
2022-10-06T00:28:19.083Z,1.63
2022-10-06T00:30:46.987Z,1.87
2022-10-06T00:33:17.759Z,1.97
2022-10-06T00:35:45.309Z,1.90
2022-10-06T00:38:13.479Z,2.20
2022-10-06T00:40:48.432Z,1.70
2022-10-06T00:43:34.203Z,1.70
2022-10-06T00:46:01.487Z,1.93
2022-10-06T00:48:30.370Z,3.10
2022-10-06T00:50:58.797Z,5.10
2022-10-06T00:53:28.581Z,14.97
2022-10-06T00:55:55.744Z,16.27
2022-10-06T00:58:22.898Z,10.93
2022-10-06T01:00:54.130Z,11.80
2022-10-06T01:03:24.047Z,6.73
2022-10-06T01:05:51.860Z,3.90
2022-10-06T01:08:19.304Z,4.23
2022-10-06T01:10:46.459Z,2.83
2022-10-06T01:13:13.936Z,1.70
2022-10-06T01:15:48.508Z,3.50
2022-10-06T01:18:18.628Z,4.97
2022-10-06T01:21:03.984Z,6.20
2022-10-06T01:23:31.930Z,7.37
2022-10-06T01:25:59.901Z,8.00
2022-10-06T01:28:27.654Z,8.27
2022-10-06T01:30:56.595Z,8.13
2022-10-06T01:33:24.126Z,6.90
2022-10-06T01:35:52.463Z,8.97
2022-10-06T01:38:20.246Z,10.37
2022-10-06T01:40:47.599Z,6.67
2022-10-06T01:43:14.796Z,4.63
2022-10-06T01:45:42.049Z,3.20
2022-10-06T01:48:09.255Z,3.47
2022-10-06T01:50:36.734Z,4.00
2022-10-06T01:53:03.940Z,2.90
2022-10-06T01:55:31.210Z,2.67
2022-10-06T01:57:58.370Z,1.93
2022-10-06T02:00:25.593Z,2.87
2022-10-06T02:02:52.754Z,1.50
2022-10-06T02:05:20.019Z,2.20
2022-10-06T02:07:47.446Z,1.30
2022-10-06T02:10:14.633Z,1.20
2022-10-06T02:12:42.424Z,1.67
2022-10-06T02:15:12.851Z,1.17
2022-10-06T02:17:40.219Z,1.90
2022-10-06T02:20:08.781Z,1.80
2022-10-06T02:22:39.701Z,2.50
2022-10-06T02:25:07.192Z,1.53
2022-10-06T02:27:34.483Z,2.30
2022-10-06T02:30:01.678Z,2.03
2022-10-06T02:32:38.993Z,1.83
2022-10-06T02:35:06.885Z,1.77
2022-10-06T02:37:34.117Z,1.23
2022-10-06T02:40:01.491Z,1.27
2022-10-06T02:42:28.780Z,1.63
2022-10-06T02:44:56.090Z,1.23
2022-10-06T02:47:23.299Z,1.40
2022-10-06T02:49:51.025Z,1.00
2022-10-06T02:52:18.208Z,2.63
2022-10-06T02:54:47.083Z,2.47
2022-10-06T02:57:15.639Z,2.00
2022-10-06T02:59:43.091Z,2.60
2022-10-06T03:02:10.462Z,2.30
2022-10-06T03:04:37.775Z,1.90
2022-10-06T03:07:04.952Z,2.10
2022-10-06T03:09:32.135Z,1.97
2022-10-06T03:11:59.816Z,2.00
2022-10-06T03:14:26.991Z,1.37
2022-10-06T03:16:56.734Z,1.10
2022-10-06T03:19:24.138Z,2.40
2022-10-06T03:21:51.344Z,2.00
2022-10-06T03:24:18.621Z,2.50
2022-10-06T03:26:47.683Z,1.60
2022-10-06T03:29:16.368Z,1.70
2022-10-06T03:31:44.025Z,2.43
2022-10-06T03:34:11.835Z,1.90
2022-10-06T03:36:39.200Z,1.83
2022-10-06T03:39:06.987Z,1.87
2022-10-06T03:41:35.548Z,1.87
2022-10-06T03:44:02.892Z,1.73
2022-10-06T03:46:31.512Z,1.77
2022-10-06T03:48:59.376Z,1.47
2022-10-06T03:51:28.197Z,1.73
2022-10-06T03:53:55.509Z,1.90
2022-10-06T03:56:22.688Z,1.43
2022-10-06T03:58:55.144Z,1.93
2022-10-06T04:01:25.880Z,1.97
2022-10-06T04:03:57.606Z,2.13
2022-10-06T04:06:25.118Z,1.97
2022-10-06T04:08:52.997Z,1.90
2022-10-06T04:11:23.220Z,2.30
2022-10-06T04:13:53.336Z,2.47
2022-10-06T04:16:22.432Z,4.03
2022-10-06T04:18:50.702Z,4.63
2022-10-06T04:21:18.267Z,5.07
2022-10-06T04:23:45.415Z,6.23
2022-10-06T04:26:16.651Z,7.73
2022-10-06T04:28:44.433Z,7.87
2022-10-06T04:31:16.359Z,6.20
2022-10-06T04:33:45.715Z,4.40
2022-10-06T04:36:23.140Z,4.37
2022-10-06T04:38:51.129Z,3.60
2022-10-06T04:41:20.220Z,3.73
2022-10-06T04:43:48.079Z,3.47
2022-10-06T04:46:40.861Z,3.90
2022-10-06T04:49:03.402Z,3.53
2022-10-06T04:51:30.647Z,3.27
2022-10-06T04:53:57.994Z,3.43
2022-10-06T04:56:29.375Z,2.30
2022-10-06T04:58:57.624Z,2.83
2022-10-06T05:01:26.107Z,3.03
2022-10-06T05:03:55.916Z,3.17
2022-10-06T05:06:27.341Z,3.60
2022-10-06T05:08:55.972Z,2.80
2022-10-06T05:11:25.962Z,2.67
2022-10-06T05:13:54.846Z,2.30
2022-10-06T05:16:22.882Z,2.93
2022-10-06T05:18:50.052Z,2.30
2022-10-06T05:21:19.377Z,2.03
2022-10-06T05:23:46.840Z,1.53
2022-10-06T05:26:15.212Z,1.77
2022-10-06T05:28:42.793Z,1.83
2022-10-06T05:31:29.430Z,2.13
2022-10-06T05:33:57.277Z,2.27
2022-10-06T05:36:25.686Z,1.90
2022-10-06T05:38:53.397Z,1.90
2022-10-06T05:41:22.522Z,2.87
2022-10-06T05:43:49.760Z,2.30
2022-10-06T05:46:20.397Z,2.17
2022-10-06T05:48:49.937Z,1.97
2022-10-06T05:51:17.868Z,2.23
2022-10-06T05:53:45.531Z,2.87
2022-10-06T05:56:15.027Z,2.33
2022-10-06T05:58:43.457Z,3.17
2022-10-06T06:01:11.941Z,2.33
2022-10-06T06:03:39.731Z,1.83
2022-10-06T06:06:33.198Z,2.07
2022-10-06T06:09:06.800Z,2.27
2022-10-06T06:11:35.083Z,2.03
2022-10-06T06:14:03.122Z,2.40
2022-10-06T06:16:33.859Z,2.73
2022-10-06T06:19:01.467Z,2.37
2022-10-06T06:21:29.123Z,2.70
2022-10-06T06:23:56.332Z,2.37
2022-10-06T06:26:24.712Z,2.23
2022-10-06T06:28:52.525Z,2.00
2022-10-06T06:31:21.525Z,2.77
2022-10-06T06:33:49.904Z,2.63
2022-10-06T06:36:20.385Z,3.40
2022-10-06T06:38:49.812Z,3.10
2022-10-06T06:41:18.471Z,2.40
2022-10-06T06:43:46.115Z,2.30
2022-10-06T06:46:15.193Z,2.50
2022-10-06T06:48:42.858Z,2.60
2022-10-06T06:51:14.323Z,2.37
2022-10-06T06:53:41.512Z,2.10
2022-10-06T06:56:09.219Z,2.37
2022-10-06T06:58:37.188Z,2.20
2022-10-06T07:01:14.713Z,3.47
2022-10-06T07:03:57.153Z,2.30
2022-10-06T07:06:28.589Z,2.80
2022-10-06T07:08:56.810Z,2.00
2022-10-06T07:11:25.518Z,2.57
2022-10-06T07:13:54.305Z,2.73
2022-10-06T07:16:40.833Z,2.60
2022-10-06T07:19:27.420Z,3.13
2022-10-06T07:22:23.838Z,2.00
2022-10-06T07:25:11.999Z,2.50
2022-10-06T07:27:43.496Z,3.07
2022-10-06T07:30:19.327Z,3.20
2022-10-06T07:32:47.504Z,2.80
2022-10-06T07:35:16.788Z,3.67
2022-10-06T07:37:44.573Z,2.60
2022-10-06T07:40:11.990Z,2.67
2022-10-06T07:42:49.300Z,3.13
2022-10-06T07:45:41.088Z,2.60
2022-10-06T07:48:11.243Z,2.30
2022-10-06T07:50:39.794Z,2.77
2022-10-06T07:53:10.526Z,2.57
2022-10-06T07:55:41.608Z,2.27
2022-10-06T07:58:11.611Z,5.00
2022-10-06T08:00:38.802Z,1.83
2022-10-06T08:03:06.055Z,3.30
2022-10-06T08:05:33.568Z,2.60
2022-10-06T08:08:00.760Z,3.10
2022-10-06T08:10:27.966Z,2.30
2022-10-06T08:12:55.130Z,2.60
2022-10-06T08:15:22.331Z,2.70
2022-10-06T08:17:49.464Z,3.00
2022-10-06T08:20:18.330Z,3.20
2022-10-06T08:22:48.244Z,2.90
2022-10-06T08:25:15.982Z,2.30
2022-10-06T08:27:44.244Z,2.97
2022-10-06T08:30:12.105Z,3.13
2022-10-06T08:32:42.769Z,2.20
2022-10-06T08:35:10.423Z,2.30
2022-10-06T08:37:37.424Z,3.37
2022-10-06T08:40:04.612Z,2.77
2022-10-06T08:42:44.390Z,2.50
2022-10-06T08:45:11.248Z,2.47
2022-10-06T08:47:38.372Z,2.70
2022-10-06T08:50:13.643Z,2.43
2022-10-06T08:52:46.253Z,2.63
2022-10-06T08:55:24.919Z,2.90
2022-10-06T08:58:00.663Z,2.17
2022-10-06T09:00:33.134Z,2.87
2022-10-06T09:03:02.220Z,2.63
2022-10-06T09:05:31.217Z,1.87
2022-10-06T09:08:16.633Z,2.40
2022-10-06T09:11:06.791Z,2.53
2022-10-06T09:13:56.972Z,2.80
2022-10-06T09:16:39.734Z,2.67
2022-10-06T09:19:33.946Z,2.33
2022-10-06T09:22:04.781Z,3.87
2022-10-06T09:24:38.397Z,2.17
2022-10-06T09:27:23.154Z,2.60
2022-10-06T09:29:52.260Z,2.30
2022-10-06T09:32:22.078Z,2.50
2022-10-06T09:34:59.717Z,3.07
2022-10-06T09:37:27.487Z,2.90
2022-10-06T09:39:55.444Z,2.00
2022-10-06T09:42:25.947Z,3.03
2022-10-06T09:45:03.981Z,2.40
2022-10-06T09:47:34.719Z,2.30
2022-10-06T09:50:26.423Z,3.42
2022-10-06T09:53:00.693Z,3.60
2022-10-06T09:55:33.983Z,2.95
2022-10-06T09:58:01.538Z,2.60
2022-10-06T10:00:39.011Z,2.65
2022-10-06T10:03:09.218Z,3.10
2022-10-06T10:05:47.942Z,2.90
2022-10-06T10:08:14.622Z,2.30
2022-10-06T10:10:41.717Z,2.30
2022-10-06T10:13:21.367Z,2.60
2022-10-06T10:15:58.912Z,2.95
2022-10-06T10:18:31.654Z,2.60
2022-10-06T10:21:08.415Z,1.58
2022-10-06T10:23:42.670Z,2.30
2022-10-06T10:26:27.281Z,1.90
2022-10-06T10:29:21.882Z,1.75
2022-10-06T10:32:15.856Z,2.55
2022-10-06T10:35:16.616Z,1.92
2022-10-06T10:37:52.163Z,1.80
2022-10-06T10:40:35.909Z,1.75
2022-10-06T10:43:11.554Z,2.30
2022-10-06T10:45:45.019Z,1.90
2022-10-06T10:48:18.748Z,2.67
2022-10-06T10:51:12.059Z,3.13
2022-10-06T10:53:46.276Z,2.45
2022-10-06T10:56:16.243Z,2.35
2022-10-06T10:58:44.845Z,1.92
2022-10-06T11:01:15.079Z,2.45
2022-10-06T11:03:42.323Z,2.15
2022-10-06T11:06:28.108Z,1.50
2022-10-06T11:09:01.165Z,2.47
2022-10-06T11:11:31.069Z,1.98
2022-10-06T11:14:00.171Z,1.83
2022-10-06T11:16:37.306Z,2.13
2022-10-06T11:19:14.850Z,1.92
2022-10-06T11:22:00.975Z,1.50
2022-10-06T11:24:28.564Z,1.70
2022-10-06T11:27:08.299Z,1.30
2022-10-06T11:29:41.453Z,1.50
2022-10-06T11:32:20.962Z,1.50
2022-10-06T11:34:52.417Z,1.40
2022-10-06T11:37:38.821Z,2.72
2022-10-06T11:40:28.097Z,1.50
2022-10-06T11:43:17.118Z,1.60
2022-10-06T11:46:08.584Z,1.27
2022-10-06T11:48:35.558Z,1.92
2022-10-06T11:51:23.605Z,1.50
2022-10-06T11:53:51.288Z,1.42
2022-10-06T11:56:18.136Z,1.70
2022-10-06T11:58:56.833Z,1.92
2022-10-06T12:01:36.271Z,1.48
2022-10-06T12:04:08.876Z,1.67
2022-10-06T12:06:47.618Z,1.63
2022-10-06T12:09:32.078Z,1.48
2022-10-06T12:12:27.565Z,1.40
2022-10-06T12:18:01.531Z,1.10
2022-10-06T12:20:40.424Z,1.60
2022-10-06T12:23:10.207Z,1.50
2022-10-06T12:25:49.024Z,1.27
2022-10-06T12:28:28.010Z,1.30
2022-10-06T12:31:01.297Z,1.50
2022-10-06T12:33:42.760Z,1.45
2022-10-06T12:36:25.678Z,1.63
2022-10-06T12:39:05.213Z,1.60
2022-10-06T12:42:02.056Z,1.73
2022-10-06T12:44:31.528Z,1.42
2022-10-06T12:47:04.140Z,1.60
2022-10-06T12:50:10.856Z,1.80
2022-10-06T12:52:44.970Z,1.30
2022-10-06T12:55:36.299Z,1.15
2022-10-06T12:58:03.148Z,1.40
2022-10-06T13:00:34.710Z,1.42
2022-10-06T13:03:03.388Z,1.42
2022-10-06T13:05:30.591Z,1.38
2022-10-06T13:08:00.228Z,1.65
2022-10-06T13:10:29.395Z,1.20
2022-10-06T13:13:01.469Z,1.85
2022-10-06T13:15:34.925Z,1.45
2022-10-06T13:18:07.508Z,1.33
2022-10-06T13:20:39.278Z,2.17
2022-10-06T13:23:29.993Z,1.40
2022-10-06T13:25:59.242Z,1.73
2022-10-06T13:28:53.035Z,1.30
2022-10-06T13:31:28.656Z,1.83
2022-10-06T13:34:06.834Z,1.80
2022-10-06T13:36:37.238Z,1.40
2022-10-06T13:39:15.262Z,1.20
2022-10-06T13:41:52.247Z,1.58
2022-10-06T13:44:18.970Z,1.88
2022-10-06T13:46:49.463Z,2.17
2022-10-06T13:49:24.993Z,1.17
2022-10-06T13:51:54.643Z,0.88
2022-10-06T13:54:29.417Z,1.60
2022-10-06T13:56:56.378Z,1.00
2022-10-06T13:59:38.807Z,1.50
2022-10-06T14:02:18.233Z,1.30
2022-10-06T14:05:05.904Z,1.92
2022-10-06T14:07:32.943Z,1.35
2022-10-06T14:09:59.755Z,1.27
2022-10-06T14:12:26.918Z,1.40
2022-10-06T14:14:53.769Z,1.20
2022-10-06T14:17:26.249Z,1.05
2022-10-06T14:19:53.059Z,1.10
2022-10-06T14:22:35.193Z,1.27
2022-10-06T14:25:02.634Z,1.83
2022-10-06T14:27:29.400Z,1.30
2022-10-06T14:29:56.859Z,1.25
2022-10-06T14:32:23.908Z,1.60
2022-10-06T14:34:50.763Z,1.20
2022-10-06T14:37:17.536Z,1.10
2022-10-06T14:39:45.480Z,1.77
2022-10-06T14:42:14.936Z,1.52
2022-10-06T14:44:43.154Z,1.60
2022-10-06T14:47:10.495Z,1.20
2022-10-06T14:49:37.932Z,1.63
2022-10-06T14:52:05.587Z,1.45
2022-10-06T14:54:34.317Z,1.50
2022-10-06T14:57:02.865Z,1.33
2022-10-06T14:59:29.643Z,1.10
2022-10-06T15:01:56.778Z,1.60
2022-10-06T15:04:27.582Z,1.48
2022-10-06T15:07:13.066Z,1.15
2022-10-06T15:09:39.984Z,1.38
2022-10-06T15:12:06.902Z,1.40
2022-10-06T15:14:39.381Z,14.65
2022-10-06T15:17:06.446Z,1.65
2022-10-06T15:19:34.162Z,1.10
2022-10-06T15:22:01.208Z,1.45
2022-10-06T15:24:28.022Z,1.60
2022-10-06T15:27:13.098Z,1.08
2022-10-06T15:29:39.937Z,1.27
2022-10-06T15:32:07.181Z,1.13
2022-10-06T15:34:36.813Z,1.17
2022-10-06T15:37:04.746Z,1.40
2022-10-06T15:39:35.072Z,1.73
2022-10-06T15:42:02.309Z,3.28
2022-10-06T15:44:32.610Z,3.22
2022-10-06T15:46:59.469Z,3.25
2022-10-06T15:49:32.783Z,2.90
2022-10-06T15:52:03.000Z,1.88
2022-10-06T15:54:33.757Z,2.35
2022-10-06T15:57:02.172Z,1.42
2022-10-06T15:59:32.725Z,1.15
2022-10-06T16:02:07.685Z,1.90
2022-10-06T16:04:40.573Z,1.85
2022-10-06T16:07:07.312Z,1.88
2022-10-06T16:09:43.113Z,2.05
2022-10-06T16:12:12.710Z,3.00
2022-10-06T16:14:39.765Z,2.85
2022-10-06T16:17:07.547Z,3.55
2022-10-06T16:19:37.881Z,3.10
2022-10-06T16:22:06.959Z,4.30
2022-10-06T16:24:33.847Z,3.67
2022-10-06T16:27:00.716Z,4.85
2022-10-06T16:29:28.298Z,1.58
2022-10-06T16:31:55.683Z,2.22
2022-10-06T16:34:23.000Z,3.17
2022-10-06T16:36:50.020Z,3.15
2022-10-06T16:39:18.808Z,2.00
2022-10-06T16:41:45.755Z,1.92
2022-10-06T16:44:12.599Z,1.55
2022-10-06T16:46:40.312Z,1.35
2022-10-06T16:49:09.142Z,1.85
2022-10-06T16:51:41.085Z,1.77
2022-10-06T16:54:09.989Z,2.00
2022-10-06T16:56:55.313Z,1.75
2022-10-06T16:59:23.846Z,1.33
2022-10-06T17:01:50.999Z,1.45
2022-10-06T17:04:22.741Z,1.95
2022-10-06T17:06:53.410Z,2.58
2022-10-06T17:09:25.832Z,2.10
2022-10-06T17:11:55.035Z,2.17
2022-10-06T17:14:22.230Z,2.92
2022-10-06T17:16:51.657Z,2.83
2022-10-06T17:19:21.118Z,2.92
2022-10-06T17:21:50.698Z,2.78
2022-10-06T17:24:25.411Z,3.22
2022-10-06T17:26:52.886Z,4.00
2022-10-06T17:29:22.125Z,5.68
2022-10-06T17:31:55.767Z,5.07
2022-10-06T17:34:26.507Z,4.35
2022-10-06T17:36:57.510Z,3.97
2022-10-06T17:39:24.678Z,4.50
2022-10-06T17:41:53.479Z,6.93
2022-10-06T17:44:23.762Z,5.97
2022-10-06T17:46:53.879Z,7.30
2022-10-06T17:49:22.060Z,4.55
2022-10-06T17:51:50.828Z,4.88
2022-10-06T17:54:20.777Z,3.28
2022-10-06T17:56:52.886Z,3.42
2022-10-06T17:59:22.609Z,3.80
2022-10-06T18:01:51.383Z,3.78
2022-10-06T18:04:19.152Z,4.65
2022-10-06T18:06:47.521Z,4.07
2022-10-06T18:09:15.329Z,4.72
2022-10-06T18:11:44.462Z,4.90
2022-10-06T18:14:22.269Z,3.65
2022-10-06T18:16:56.197Z,3.92
2022-10-06T18:19:34.692Z,3.67
2022-10-06T18:22:10.843Z,3.67
2022-10-06T18:24:38.771Z,4.13
2022-10-06T18:27:06.571Z,4.15
2022-10-06T18:29:39.745Z,6.13
2022-10-06T18:33:00.713Z,6.85
2022-10-06T18:37:43.275Z,3.70
2022-10-06T18:40:11.154Z,3.75
2022-10-06T18:42:39.508Z,3.67
2022-10-06T18:45:26.093Z,3.00
2022-10-06T18:48:12.219Z,3.70
2022-10-06T18:50:39.532Z,4.38
2022-10-06T18:53:06.833Z,4.77
2022-10-06T18:55:35.049Z,3.43
2022-10-06T18:58:02.440Z,3.37
2022-10-06T19:00:29.606Z,2.90
2022-10-06T19:02:56.996Z,3.30
2022-10-06T19:05:24.477Z,3.63
2022-10-06T19:07:53.685Z,3.40
2022-10-06T19:10:20.853Z,3.83
2022-10-06T19:12:48.544Z,3.67
2022-10-06T19:15:20.305Z,3.90
2022-10-06T19:17:48.467Z,4.00
2022-10-06T19:20:15.383Z,3.93
2022-10-06T19:22:43.542Z,3.73
2022-10-06T19:25:11.239Z,3.13
2022-10-06T19:27:38.129Z,3.27
2022-10-06T19:30:05.490Z,2.90
2022-10-06T19:32:32.847Z,3.43
2022-10-06T19:35:00.125Z,2.73
2022-10-06T19:37:28.967Z,3.60
2022-10-06T19:39:56.201Z,3.47
2022-10-06T19:42:42.183Z,10.90
2022-10-06T19:45:10.042Z,3.33
2022-10-06T19:47:37.213Z,3.20
2022-10-06T19:50:10.409Z,4.37
2022-10-06T19:52:39.125Z,2.90
2022-10-06T19:55:06.486Z,3.30
2022-10-06T19:57:33.847Z,2.60
2022-10-06T20:00:01.155Z,3.57
2022-10-06T20:02:28.906Z,2.93
2022-10-06T20:04:56.293Z,2.77
2022-10-06T20:07:27.500Z,3.87
2022-10-06T20:09:54.923Z,3.20
2022-10-06T20:12:24.925Z,3.07
2022-10-06T20:14:53.469Z,2.73
2022-10-06T20:17:21.118Z,3.43
2022-10-06T20:19:48.553Z,2.70
2022-10-06T20:22:16.097Z,3.10
2022-10-06T20:24:43.426Z,2.10
2022-10-06T20:27:10.570Z,3.10
2022-10-06T20:29:37.866Z,3.00
2022-10-06T20:32:05.575Z,2.80
2022-10-06T20:34:33.266Z,2.50
2022-10-06T20:37:04.754Z,2.80
2022-10-06T20:39:51.695Z,3.10
2022-10-06T20:42:19.859Z,2.63
2022-10-06T20:44:47.182Z,2.47
2022-10-06T20:47:16.383Z,2.57
2022-10-06T20:49:43.930Z,2.97
2022-10-06T20:52:14.316Z,2.97
2022-10-06T20:54:41.594Z,2.67
2022-10-06T20:57:09.470Z,3.07
2022-10-06T20:59:37.454Z,2.77
2022-10-06T21:02:05.299Z,3.45
2022-10-06T21:04:32.108Z,2.57
2022-10-06T21:06:58.956Z,3.20
2022-10-06T21:09:28.397Z,2.60
2022-10-06T21:11:57.383Z,2.20
2022-10-06T21:14:24.331Z,2.77
2022-10-06T21:16:51.760Z,2.67
2022-10-06T21:19:19.848Z,2.00
2022-10-06T21:21:53.344Z,2.60
2022-10-06T21:24:20.975Z,2.20
2022-10-06T21:26:48.697Z,2.53
2022-10-06T21:29:16.190Z,2.40
2022-10-06T21:31:44.409Z,2.50
2022-10-06T21:34:11.750Z,2.60
2022-10-06T21:36:39.427Z,2.57
2022-10-06T21:39:07.019Z,2.10
2022-10-06T21:41:39.231Z,12.00
2022-10-06T21:44:11.998Z,7.30
2022-10-06T21:46:47.317Z,3.03
2022-10-06T21:49:19.931Z,2.67
2022-10-06T21:51:49.171Z,3.30
2022-10-06T21:54:16.373Z,3.37
2022-10-06T21:56:43.716Z,3.57
2022-10-06T21:59:11.705Z,2.73
2022-10-06T22:01:46.041Z,2.40
2022-10-06T22:04:14.455Z,2.60
2022-10-06T22:06:42.617Z,2.63
2022-10-06T22:09:13.245Z,3.43
2022-10-06T22:11:42.003Z,10.57
2022-10-06T22:14:11.821Z,3.47
2022-10-06T22:16:39.247Z,2.77
2022-10-06T22:19:09.504Z,3.30
2022-10-06T22:21:40.221Z,2.60
2022-10-06T22:24:09.508Z,2.87
2022-10-06T22:26:37.954Z,2.50
2022-10-06T22:29:06.992Z,2.13
2022-10-06T22:31:35.025Z,3.00
2022-10-06T22:34:04.813Z,2.80
2022-10-06T22:36:33.217Z,2.90
2022-10-06T22:39:00.840Z,2.87
2022-10-06T22:41:27.824Z,2.90
2022-10-06T22:43:57.612Z,2.53
2022-10-06T22:46:32.216Z,2.20
2022-10-06T22:48:59.709Z,2.43
2022-10-06T22:51:28.223Z,2.70
2022-10-06T22:53:58.281Z,2.27
2022-10-06T22:56:26.626Z,2.50
2022-10-06T22:58:53.789Z,3.03
2022-10-06T23:01:20.972Z,3.60
2022-10-06T23:03:49.729Z,2.33
2022-10-06T23:06:17.981Z,2.43
2022-10-06T23:08:45.398Z,2.63
2022-10-06T23:11:16.972Z,2.13
2022-10-06T23:13:44.675Z,2.67
2022-10-06T23:16:15.658Z,2.30
2022-10-06T23:18:43.477Z,3.20
2022-10-06T23:21:13.902Z,3.67
2022-10-06T23:23:40.694Z,3.90
2022-10-06T23:26:09.547Z,2.70
2022-10-06T23:28:37.096Z,2.97
2022-10-06T23:31:05.459Z,2.37
2022-10-06T23:33:32.786Z,2.40
2022-10-06T23:36:01.205Z,2.60
2022-10-06T23:38:28.650Z,2.90
2022-10-06T23:40:55.820Z,2.63
2022-10-06T23:43:23.427Z,3.37
2022-10-06T23:45:50.755Z,3.60
2022-10-06T23:48:18.039Z,2.70
2022-10-06T23:50:55.227Z,3.27
2022-10-06T23:53:24.299Z,2.93
2022-10-06T23:55:51.441Z,2.80
2022-10-06T23:58:19.105Z,3.13
